Ingelmunster, Belgium
Current Conditions -  °F | °C
As of 12:00 PM on Tuesday 21 Oct 2014 (Local Time) from LFQQ Reporting Station
Light Rain Light Rain  
Wind Chill: 55°   Ceiling: 1300
Heat Index: 55°   Visibility: 6mi
Dew Point: 54°   Wind: 22mph
Humidity: 94%   Direction: 200°SSW
Pressure: 29.62"   Gusts: NA
Location:  50.92°N, 3.26°E
Report Text: LFQQ 211000Z 20019KT 9999 -RA BKN013 13/12 Q1003 TEMPO 5000RA
Loading
Personal Weather Stations






























Interactive Weather Map
Tropical Storm Tracking
New forecast layout! Learn more

10-Day Weather Forecast

Advertisements
Track Severe Weather on mobile